createdAt,value
2019-05-30T00:01:36.341Z,10.61
2019-05-30T00:04:06.011Z,10.60
2019-05-30T00:06:35.533Z,10.56
2019-05-30T00:09:09.199Z,10.49
2019-05-30T00:11:40.178Z,10.47
2019-05-30T00:14:09.675Z,10.32
2019-05-30T00:16:39.166Z,10.28
2019-05-30T00:19:08.660Z,10.20
2019-05-30T00:21:38.139Z,10.18
2019-05-30T00:24:26.953Z,10.18
2019-05-30T00:26:56.442Z,10.11
2019-05-30T00:29:25.920Z,10.12
2019-05-30T00:31:55.616Z,10.11
2019-05-30T00:34:25.094Z,10.00
2019-05-30T00:36:55.663Z,10.01
2019-05-30T00:39:25.355Z,9.82
2019-05-30T00:41:56.023Z,9.70
2019-05-30T00:44:25.537Z,9.65
2019-05-30T00:46:56.043Z,9.66
2019-05-30T00:49:26.244Z,9.63
2019-05-30T00:51:56.412Z,9.51
2019-05-30T00:54:26.101Z,9.61
2019-05-30T00:56:57.082Z,9.61
2019-05-30T00:59:26.546Z,9.61
2019-05-30T01:01:56.591Z,9.54
2019-05-30T01:04:26.219Z,9.49
2019-05-30T01:06:56.854Z,9.42
2019-05-30T01:09:26.460Z,9.42
2019-05-30T01:11:56.986Z,9.34
2019-05-30T01:14:26.549Z,9.25
2019-05-30T01:16:57.076Z,9.17
2019-05-30T01:19:26.724Z,9.20
2019-05-30T01:21:57.123Z,9.14
2019-05-30T01:24:26.613Z,9.12
2019-05-30T01:26:57.127Z,9.13
2019-05-30T01:29:26.682Z,9.10
2019-05-30T01:31:57.353Z,9.08
2019-05-30T01:34:26.925Z,9.01
2019-05-30T01:36:57.570Z,8.99
2019-05-30T01:39:27.265Z,8.89
2019-05-30T01:41:57.746Z,8.90
2019-05-30T01:44:27.275Z,8.89
2019-05-30T01:46:58.089Z,8.90
2019-05-30T01:49:27.725Z,8.89
2019-05-30T01:51:58.318Z,8.86
2019-05-30T01:54:27.894Z,8.83
2019-05-30T01:56:58.437Z,8.84
2019-05-30T01:59:28.028Z,8.79
2019-05-30T02:01:58.771Z,8.79
2019-05-30T02:04:28.461Z,8.75
2019-05-30T02:07:17.251Z,8.73
2019-05-30T02:09:46.726Z,8.61
2019-05-30T02:12:16.188Z,8.57
2019-05-30T02:14:45.690Z,8.54
2019-05-30T02:17:15.209Z,8.54
2019-05-30T02:19:44.670Z,8.54
2019-05-30T02:22:14.177Z,8.50
2019-05-30T02:24:43.657Z,8.51
2019-05-30T02:27:13.139Z,8.50
2019-05-30T02:29:42.638Z,8.50
2019-05-30T02:32:12.116Z,8.47
2019-05-30T02:34:43.084Z,8.45
2019-05-30T02:37:12.939Z,8.47
2019-05-30T02:39:42.704Z,8.45
2019-05-30T02:42:12.188Z,8.43
2019-05-30T02:44:41.845Z,8.46
2019-05-30T02:47:11.691Z,8.48
2019-05-30T02:49:41.279Z,8.48
2019-05-30T02:52:13.001Z,8.44
2019-05-30T02:54:42.147Z,8.44
2019-05-30T02:57:12.612Z,8.39
2019-05-30T02:59:42.278Z,8.44
2019-05-30T03:02:15.143Z,8.44
2019-05-30T03:04:42.950Z,8.39
2019-05-30T03:07:13.125Z,8.36
2019-05-30T03:09:42.836Z,8.38
2019-05-30T03:12:13.494Z,8.40
2019-05-30T03:14:44.817Z,8.38
2019-05-30T03:17:14.823Z,8.38
2019-05-30T03:20:11.990Z,8.39
2019-05-30T03:22:36.014Z,8.33
2019-05-30T03:25:10.487Z,8.34
2019-05-30T03:27:38.692Z,8.31
2019-05-30T03:30:18.238Z,8.24
2019-05-30T03:35:24.365Z,8.15
2019-05-30T03:37:45.547Z,8.09
2019-05-30T03:40:15.435Z,8.07
2019-05-30T03:42:45.106Z,8.04
2019-05-30T03:45:20.935Z,8.02
2019-05-30T03:47:54.977Z,7.96
2019-05-30T03:50:46.797Z,7.95
2019-05-30T03:53:17.006Z,7.76
2019-05-30T03:55:51.012Z,7.86
2019-05-30T03:58:25.036Z,7.89
2019-05-30T04:00:59.238Z,7.91
2019-05-30T04:03:33.638Z,8.01
2019-05-30T04:06:10.116Z,8.08
2019-05-30T04:08:42.205Z,8.13
2019-05-30T04:11:16.918Z,8.20
2019-05-30T04:13:51.443Z,8.34
2019-05-30T04:16:20.958Z,8.32
2019-05-30T04:18:50.476Z,8.38
2019-05-30T04:21:21.628Z,8.48
2019-05-30T04:23:51.293Z,8.50
2019-05-30T04:26:20.745Z,8.57
2019-05-30T04:28:50.511Z,8.61
2019-05-30T04:31:20.021Z,8.75
2019-05-30T04:33:49.505Z,8.84
2019-05-30T04:36:19.351Z,8.94
2019-05-30T04:39:08.937Z,8.99
2019-05-30T04:41:39.005Z,8.67
2019-05-30T04:44:09.855Z,8.86
2019-05-30T04:46:59.100Z,9.15
2019-05-30T04:49:28.592Z,9.41
2019-05-30T04:51:58.070Z,9.64
2019-05-30T04:54:27.578Z,9.86
2019-05-30T04:56:57.078Z,10.05
2019-05-30T04:59:45.864Z,10.27
2019-05-30T05:02:16.431Z,10.45
2019-05-30T05:04:46.543Z,10.61
2019-05-30T05:07:17.689Z,10.55
2019-05-30T05:10:08.538Z,10.40
2019-05-30T05:12:38.138Z,10.31
2019-05-30T05:15:08.500Z,10.30
2019-05-30T05:17:38.137Z,10.36
2019-05-30T05:20:10.371Z,10.48
2019-05-30T05:22:39.839Z,10.62
2019-05-30T05:25:09.982Z,10.70
2019-05-30T05:27:39.481Z,10.99
2019-05-30T05:30:10.657Z,11.16
2019-05-30T05:32:40.198Z,11.23
2019-05-30T05:35:11.124Z,11.60
2019-05-30T05:37:40.615Z,11.88
2019-05-30T05:40:10.884Z,12.31
2019-05-30T05:42:40.599Z,12.65
2019-05-30T05:45:11.071Z,12.90
2019-05-30T05:47:41.041Z,13.03
2019-05-30T05:50:11.174Z,13.02
2019-05-30T05:52:59.950Z,13.13
2019-05-30T05:55:29.432Z,13.39
2019-05-30T05:57:58.908Z,13.44
2019-05-30T06:00:29.692Z,13.72
2019-05-30T06:02:59.347Z,13.21
2019-05-30T06:05:28.892Z,13.54
2019-05-30T06:07:58.356Z,13.51
2019-05-30T06:10:28.861Z,13.31
2019-05-30T06:12:58.495Z,13.55
2019-05-30T06:15:29.001Z,14.26
2019-05-30T06:17:58.553Z,14.62
2019-05-30T06:20:28.225Z,14.94
2019-05-30T06:22:57.669Z,15.21
2019-05-30T06:25:35.980Z,15.53
2019-05-30T06:28:24.803Z,15.57
2019-05-30T06:30:54.467Z,15.98
2019-05-30T06:33:24.985Z,16.39
2019-05-30T06:35:54.675Z,16.13
2019-05-30T06:38:25.288Z,15.82
2019-05-30T06:41:14.189Z,16.64
2019-05-30T06:44:05.661Z,16.99
2019-05-30T06:46:34.455Z,17.92
2019-05-30T06:49:04.119Z,17.91
2019-05-30T06:51:33.621Z,19.00
2019-05-30T06:54:03.091Z,19.76
2019-05-30T06:56:32.616Z,19.91
2019-05-30T06:59:02.108Z,20.86
2019-05-30T07:01:32.172Z,21.46
2019-05-30T07:04:01.915Z,21.86
2019-05-30T07:06:33.475Z,22.30
2019-05-30T07:09:02.907Z,22.48
2019-05-30T07:11:33.066Z,22.93
2019-05-30T07:14:02.717Z,23.10
2019-05-30T07:16:32.206Z,22.85
2019-05-30T07:19:01.739Z,22.98
2019-05-30T07:21:31.776Z,23.06
2019-05-30T07:24:01.438Z,23.10
2019-05-30T07:26:31.934Z,23.04
2019-05-30T07:29:01.499Z,23.57
2019-05-30T07:31:32.216Z,23.48
2019-05-30T07:34:01.711Z,23.68
2019-05-30T07:36:32.320Z,24.20
2019-05-30T07:39:05.512Z,22.93
2019-05-30T07:41:35.039Z,22.06
2019-05-30T07:44:06.145Z,22.57
2019-05-30T07:46:35.788Z,23.17
2019-05-30T07:49:05.497Z,23.79
2019-05-30T07:51:35.671Z,23.89
2019-05-30T07:54:08.296Z,23.76
2019-05-30T07:56:38.091Z,23.05
2019-05-30T07:59:07.744Z,22.76
2019-05-30T08:01:37.360Z,22.92
2019-05-30T08:04:07.064Z,22.87
2019-05-30T08:06:37.802Z,22.56
2019-05-30T08:09:26.963Z,22.17
2019-05-30T08:11:58.589Z,21.36
2019-05-30T08:14:29.023Z,21.04
2019-05-30T08:16:58.623Z,20.65
2019-05-30T08:19:28.152Z,20.63
2019-05-30T08:21:57.630Z,21.08
2019-05-30T08:24:28.180Z,21.24
2019-05-30T08:26:57.802Z,20.69
2019-05-30T08:29:28.053Z,20.57
2019-05-30T08:31:57.616Z,20.05
2019-05-30T08:34:28.336Z,20.07
2019-05-30T08:36:57.975Z,20.22
2019-05-30T08:39:27.487Z,20.10
2019-05-30T08:42:16.435Z,20.23
2019-05-30T08:44:46.163Z,20.11
2019-05-30T08:47:15.662Z,20.27
2019-05-30T08:49:45.228Z,20.64
2019-05-30T08:52:14.755Z,21.00
2019-05-30T08:54:44.228Z,21.19
2019-05-30T08:57:14.001Z,21.54
2019-05-30T08:59:44.885Z,21.66
2019-05-30T09:02:14.502Z,21.76
2019-05-30T09:04:44.039Z,21.94
2019-05-30T09:07:13.584Z,22.28
2019-05-30T09:09:46.386Z,22.36
2019-05-30T09:12:16.038Z,22.93
2019-05-30T09:14:46.832Z,23.44
2019-05-30T09:17:18.015Z,24.06
2019-05-30T09:20:08.768Z,23.57
2019-05-30T09:22:39.728Z,23.77
2019-05-30T09:25:28.984Z,23.87
2019-05-30T09:27:58.473Z,24.30
2019-05-30T09:30:28.142Z,24.65
2019-05-30T09:32:57.638Z,24.94
2019-05-30T09:35:27.755Z,25.07
2019-05-30T09:37:57.171Z,25.20
2019-05-30T09:40:27.293Z,25.35
2019-05-30T09:42:56.791Z,25.69
2019-05-30T09:45:28.432Z,26.54
2019-05-30T09:47:58.020Z,26.71
2019-05-30T09:50:27.600Z,27.44
2019-05-30T09:53:16.398Z,27.88
2019-05-30T09:55:46.262Z,28.55
2019-05-30T09:58:16.004Z,27.70
2019-05-30T10:00:47.233Z,28.08
2019-05-30T10:03:16.758Z,28.97
2019-05-30T10:05:47.054Z,29.63
2019-05-30T10:08:17.201Z,29.18
2019-05-30T10:10:47.691Z,27.39
2019-05-30T10:13:17.356Z,27.56
2019-05-30T10:15:47.044Z,28.10
2019-05-30T10:18:18.620Z,27.62
2019-05-30T10:20:49.434Z,26.44
2019-05-30T10:23:38.688Z,25.93
2019-05-30T10:26:08.331Z,25.20
2019-05-30T10:28:37.837Z,25.48
2019-05-30T10:31:07.343Z,26.23
2019-05-30T10:33:36.851Z,26.63
2019-05-30T10:36:06.266Z,27.75
2019-05-30T10:38:35.929Z,27.67
2019-05-30T10:41:05.670Z,27.63
2019-05-30T10:43:54.488Z,27.48
2019-05-30T10:46:24.274Z,27.80
2019-05-30T10:48:54.741Z,27.53
2019-05-30T10:51:24.405Z,27.55
2019-05-30T10:53:54.113Z,27.67
2019-05-30T10:56:23.692Z,27.74
2019-05-30T10:58:53.193Z,26.99
2019-05-30T11:01:41.961Z,27.29
2019-05-30T11:04:11.638Z,27.06
2019-05-30T11:09:23.858Z,26.92
2019-05-30T11:11:53.423Z,26.44
2019-05-30T11:14:22.997Z,26.13
2019-05-30T11:16:53.742Z,26.43
2019-05-30T11:19:23.353Z,25.82
2019-05-30T11:21:54.560Z,25.71
2019-05-30T11:24:24.201Z,25.63
2019-05-30T11:26:55.256Z,25.64
2019-05-30T11:29:24.943Z,25.69
2019-05-30T11:31:54.941Z,24.15
2019-05-30T11:34:24.511Z,24.23
2019-05-30T11:36:55.092Z,25.30
2019-05-30T11:39:24.656Z,25.51
2019-05-30T11:41:55.270Z,24.92
2019-05-30T11:44:24.919Z,24.77
2019-05-30T11:47:00.675Z,24.21
2019-05-30T11:49:30.177Z,23.43
2019-05-30T11:51:59.982Z,23.82
2019-05-30T11:54:29.551Z,23.62
2019-05-30T11:57:00.089Z,23.39
2019-05-30T11:59:29.893Z,22.84
2019-05-30T12:02:00.525Z,23.47
2019-05-30T12:04:30.109Z,24.07
2019-05-30T12:07:00.842Z,24.64
2019-05-30T12:09:30.547Z,24.87
2019-05-30T12:12:01.341Z,24.80
2019-05-30T12:14:30.979Z,24.39
2019-05-30T12:17:02.054Z,23.96
2019-05-30T12:19:51.401Z,24.22
2019-05-30T12:22:21.050Z,24.52
2019-05-30T12:24:51.731Z,24.00
2019-05-30T12:27:21.523Z,24.10
2019-05-30T12:29:52.046Z,24.16
2019-05-30T12:32:21.613Z,24.10
2019-05-30T12:34:52.252Z,24.59
2019-05-30T12:37:23.600Z,24.58
2019-05-30T12:39:54.448Z,23.82
2019-05-30T12:42:24.068Z,24.26
2019-05-30T12:44:54.961Z,24.85
2019-05-30T12:47:24.578Z,25.41
2019-05-30T12:49:55.137Z,25.14
2019-05-30T12:52:24.746Z,25.08
2019-05-30T12:54:54.469Z,24.93
2019-05-30T12:57:24.049Z,23.95
2019-05-30T13:00:18.941Z,24.33
2019-05-30T13:03:07.282Z,24.65
2019-05-30T13:05:37.046Z,24.56
2019-05-30T13:08:20.687Z,24.71
2019-05-30T13:10:39.490Z,24.43
2019-05-30T13:13:09.071Z,24.39
2019-05-30T13:15:38.579Z,24.11
2019-05-30T13:18:08.092Z,24.32
2019-05-30T13:20:38.146Z,24.40
2019-05-30T13:23:28.523Z,24.06
2019-05-30T13:25:58.109Z,24.23
2019-05-30T13:28:27.575Z,24.64
2019-05-30T13:30:58.095Z,24.75
2019-05-30T13:33:46.993Z,24.39
2019-05-30T13:36:16.468Z,24.45
2019-05-30T13:38:45.934Z,24.24
2019-05-30T13:41:15.460Z,24.24
2019-05-30T13:43:44.957Z,24.42
2019-05-30T13:46:14.421Z,24.60
2019-05-30T13:48:44.221Z,24.77
2019-05-30T13:51:13.680Z,25.22
2019-05-30T13:53:43.180Z,25.54
2019-05-30T13:56:12.661Z,25.19
2019-05-30T13:58:42.134Z,24.95
2019-05-30T14:01:13.889Z,24.93
2019-05-30T14:03:42.846Z,24.69
2019-05-30T14:06:12.356Z,24.13
2019-05-30T14:08:42.251Z,24.20
2019-05-30T14:11:11.830Z,24.23
2019-05-30T14:13:41.285Z,24.35
2019-05-30T14:16:11.066Z,24.70
2019-05-30T14:18:40.657Z,24.87
2019-05-30T14:21:11.386Z,24.46
2019-05-30T14:23:41.076Z,24.34
2019-05-30T14:26:11.605Z,24.21
2019-05-30T14:28:41.315Z,24.60
2019-05-30T14:31:11.914Z,24.13
2019-05-30T14:33:42.114Z,24.51
2019-05-30T14:36:13.304Z,24.19
2019-05-30T14:39:02.677Z,24.07
2019-05-30T14:41:32.306Z,23.39
2019-05-30T14:44:03.043Z,23.61
2019-05-30T14:46:32.709Z,23.78
2019-05-30T14:49:02.261Z,23.59
2019-05-30T14:51:35.137Z,23.41
2019-05-30T14:54:03.026Z,23.31
2019-05-30T14:56:32.480Z,23.20
2019-05-30T14:59:01.977Z,23.54
2019-05-30T15:01:31.481Z,23.91
2019-05-30T15:04:00.956Z,24.21
2019-05-30T15:06:30.429Z,24.50
2019-05-30T15:09:14.336Z,24.13
2019-05-30T15:11:31.147Z,23.85
2019-05-30T15:14:00.624Z,24.01
2019-05-30T15:16:30.144Z,24.00
2019-05-30T15:18:59.643Z,23.83
2019-05-30T15:21:29.098Z,24.27
2019-05-30T15:23:58.587Z,24.37
2019-05-30T15:26:28.062Z,24.19
2019-05-30T15:28:57.529Z,24.77
2019-05-30T15:31:27.038Z,24.95
2019-05-30T15:33:56.526Z,24.93
2019-05-30T15:36:45.368Z,24.77
2019-05-30T15:39:18.921Z,24.61
2019-05-30T15:41:46.122Z,24.47
2019-05-30T15:44:15.821Z,24.60
2019-05-30T15:46:46.763Z,24.49
2019-05-30T15:49:16.482Z,24.50
2019-05-30T15:51:46.065Z,24.16
2019-05-30T15:54:15.567Z,23.95
2019-05-30T15:56:45.036Z,23.27
2019-05-30T15:59:15.814Z,23.04
2019-05-30T16:01:48.260Z,22.90
2019-05-30T16:04:18.289Z,23.45
2019-05-30T16:06:48.130Z,23.57
2019-05-30T16:09:18.819Z,23.75
2019-05-30T16:11:48.466Z,24.00
2019-05-30T16:14:17.960Z,24.17
2019-05-30T16:16:47.493Z,24.19
2019-05-30T16:19:22.845Z,24.09
2019-05-30T16:21:49.779Z,24.00
2019-05-30T16:24:19.277Z,24.01
2019-05-30T16:26:48.754Z,23.37
2019-05-30T16:29:18.263Z,23.24
2019-05-30T16:31:47.732Z,23.16
2019-05-30T16:34:18.060Z,23.53
2019-05-30T16:36:47.706Z,23.62
2019-05-30T16:39:18.196Z,23.26
2019-05-30T16:41:47.774Z,23.33
2019-05-30T16:44:36.941Z,23.06
2019-05-30T16:47:06.428Z,22.57
2019-05-30T16:49:35.949Z,22.50
2019-05-30T16:52:07.175Z,22.39
2019-05-30T16:54:36.615Z,22.31
2019-05-30T16:57:06.292Z,22.13
2019-05-30T16:59:55.151Z,22.00
2019-05-30T17:02:24.620Z,21.97
2019-05-30T17:04:54.092Z,21.96
2019-05-30T17:07:23.582Z,22.15
2019-05-30T17:09:53.049Z,22.28
2019-05-30T17:12:41.904Z,22.16
2019-05-30T17:15:12.161Z,22.10
2019-05-30T17:17:41.651Z,21.82
2019-05-30T17:20:14.450Z,21.71
2019-05-30T17:22:43.947Z,21.82
2019-05-30T17:25:14.118Z,22.11
2019-05-30T17:27:43.668Z,22.13
2019-05-30T17:30:32.565Z,22.31
2019-05-30T17:33:02.110Z,22.18
2019-05-30T17:35:31.600Z,21.92
2019-05-30T17:38:01.126Z,21.60
2019-05-30T17:40:43.673Z,21.28
2019-05-30T17:43:01.871Z,21.27
2019-05-30T17:45:31.375Z,21.12
2019-05-30T17:48:15.648Z,21.07
2019-05-30T17:50:32.470Z,20.99
2019-05-30T17:53:01.945Z,20.85
2019-05-30T17:55:31.466Z,20.71
2019-05-30T17:58:00.951Z,20.69
2019-05-30T18:00:49.742Z,20.55
2019-05-30T18:03:20.358Z,20.49
2019-05-30T18:05:49.946Z,20.38
2019-05-30T18:08:20.739Z,20.20
2019-05-30T18:10:53.879Z,20.06
2019-05-30T18:13:22.980Z,19.96
2019-05-30T18:15:52.705Z,19.87
2019-05-30T18:18:23.136Z,19.87
2019-05-30T18:20:52.732Z,19.78
2019-05-30T18:23:23.409Z,19.81
2019-05-30T18:25:53.035Z,19.72
2019-05-30T18:28:23.594Z,19.55
2019-05-30T18:30:53.247Z,19.39
2019-05-30T18:33:23.987Z,19.26
2019-05-30T18:35:53.726Z,19.16
2019-05-30T18:38:24.260Z,19.01
2019-05-30T18:41:10.262Z,18.91
2019-05-30T18:43:26.927Z,18.80
2019-05-30T18:45:56.597Z,18.75
2019-05-30T18:48:27.231Z,18.74
2019-05-30T18:51:16.289Z,18.61
2019-05-30T18:53:45.756Z,18.47
2019-05-30T18:56:15.327Z,18.40
2019-05-30T18:58:44.923Z,18.22
2019-05-30T19:01:14.409Z,18.08
2019-05-30T19:03:43.893Z,17.96
2019-05-30T19:06:13.434Z,17.91
2019-05-30T19:08:42.925Z,17.89
2019-05-30T19:11:26.774Z,17.73
2019-05-30T19:13:43.616Z,17.55
2019-05-30T19:16:13.087Z,17.45
2019-05-30T19:18:42.767Z,17.35
2019-05-30T19:21:12.273Z,17.31
2019-05-30T19:23:41.756Z,17.32
2019-05-30T19:26:11.463Z,17.17
2019-05-30T19:28:41.163Z,17.07
2019-05-30T19:31:10.627Z,17.04
2019-05-30T19:33:40.095Z,16.95
2019-05-30T19:36:09.612Z,16.89
2019-05-30T19:38:39.136Z,16.83
2019-05-30T19:41:08.606Z,16.75
2019-05-30T19:43:38.154Z,16.68
2019-05-30T19:46:07.618Z,16.59
2019-05-30T19:48:38.544Z,16.46
2019-05-30T19:51:08.139Z,16.35
2019-05-30T19:53:39.223Z,16.28
2019-05-30T19:56:08.762Z,16.24
2019-05-30T19:58:38.274Z,16.20
2019-05-30T20:01:07.616Z,16.14
2019-05-30T20:03:43.621Z,16.08
2019-05-30T20:06:14.222Z,16.06
2019-05-30T20:08:54.590Z,16.10
2019-05-30T20:11:14.952Z,16.08
2019-05-30T20:13:44.821Z,16.01
2019-05-30T20:16:14.418Z,15.95
2019-05-30T20:18:43.918Z,15.94
2019-05-30T20:21:13.434Z,15.84
2019-05-30T20:23:55.327Z,15.28
2019-05-30T20:26:19.749Z,15.83
2019-05-30T20:28:49.226Z,15.86
2019-05-30T20:31:18.725Z,15.83
2019-05-30T20:33:49.948Z,15.84
2019-05-30T20:36:19.479Z,15.84
2019-05-30T20:38:48.931Z,15.86
2019-05-30T20:41:18.492Z,15.93
2019-05-30T20:44:07.293Z,15.99
2019-05-30T20:46:37.140Z,16.06
2019-05-30T20:49:06.936Z,16.08
2019-05-30T20:51:37.196Z,16.16
2019-05-30T20:54:07.929Z,16.18
2019-05-30T20:56:37.455Z,16.26
2019-05-30T20:59:10.022Z,16.32
2019-05-30T21:01:38.131Z,16.34
2019-05-30T21:04:07.598Z,16.37
2019-05-30T21:06:38.803Z,16.38
2019-05-30T21:09:27.277Z,16.28
2019-05-30T21:12:01.746Z,16.32
2019-05-30T21:14:35.546Z,16.29
2019-05-30T21:17:05.368Z,16.36
2019-05-30T21:19:36.350Z,16.42
2019-05-30T21:22:05.843Z,16.43
2019-05-30T21:24:36.383Z,16.45
2019-05-30T21:27:25.356Z,16.52
2019-05-30T21:29:54.861Z,16.51
2019-05-30T21:32:25.820Z,16.59
2019-05-30T21:34:55.460Z,16.66
2019-05-30T21:37:25.064Z,16.67
2019-05-30T21:39:54.563Z,16.71
2019-05-30T21:42:24.310Z,16.77
2019-05-30T21:44:53.799Z,16.80
2019-05-30T21:47:23.284Z,16.81
2019-05-30T21:49:52.805Z,16.70
2019-05-30T21:52:22.347Z,16.71
2019-05-30T21:54:52.104Z,16.72
2019-05-30T21:57:21.626Z,16.76
2019-05-30T22:00:13.456Z,16.76
2019-05-30T22:02:48.594Z,16.82
2019-05-30T22:05:18.329Z,16.81
2019-05-30T22:07:48.949Z,16.89
2019-05-30T22:10:19.009Z,16.82
2019-05-30T22:12:49.454Z,16.75
2019-05-30T22:15:19.779Z,16.76
2019-05-30T22:17:49.902Z,16.68
2019-05-30T22:20:19.699Z,16.70
2019-05-30T22:22:50.231Z,16.75
2019-05-30T22:25:20.200Z,16.75
2019-05-30T22:27:50.557Z,16.80
2019-05-30T22:30:21.468Z,16.83
2019-05-30T22:32:50.950Z,16.85
2019-05-30T22:35:20.432Z,16.88
2019-05-30T22:37:50.994Z,16.92
2019-05-30T22:40:20.801Z,16.93
2019-05-30T22:42:50.286Z,16.94
2019-05-30T22:45:19.759Z,16.94
2019-05-30T22:47:50.441Z,16.87
2019-05-30T22:50:39.387Z,16.88
2019-05-30T22:53:09.193Z,16.85
2019-05-30T22:55:38.861Z,16.84
2019-05-30T22:58:08.327Z,16.82
2019-05-30T23:00:37.867Z,16.78
2019-05-30T23:03:07.357Z,16.77
2019-05-30T23:05:36.828Z,16.76
2019-05-30T23:08:06.335Z,16.78
2019-05-30T23:10:35.906Z,16.76
2019-05-30T23:13:05.553Z,16.77
2019-05-30T23:15:35.058Z,16.75
2019-05-30T23:18:05.001Z,16.75
2019-05-30T23:20:34.483Z,16.77
2019-05-30T23:23:04.129Z,16.71
2019-05-30T23:25:53.323Z,16.63
2019-05-30T23:28:22.909Z,16.68
2019-05-30T23:30:52.391Z,16.73
2019-05-30T23:33:21.862Z,16.65
2019-05-30T23:35:52.320Z,16.61
2019-05-30T23:38:21.811Z,16.69
2019-05-30T23:40:53.018Z,16.70
2019-05-30T23:43:22.575Z,16.67
2019-05-30T23:45:53.241Z,16.63
2019-05-30T23:48:22.832Z,16.75
2019-05-30T23:50:52.404Z,16.76
2019-05-30T23:53:21.873Z,16.72
2019-05-30T23:55:52.251Z,16.72
2019-05-30T23:58:21.918Z,16.73
